sensor_id;sensor_type;location;lat;lon;timestamp;pressure;altitude;pressure_sealevel;temperature;humidity
38718;BME280;24468;52.128;9.278;2023-10-08T00:01:35;101056.88;;;18.75;100.00
38718;BME280;24468;52.128;9.278;2023-10-08T00:04:06;101066.44;;;18.55;100.00
38718;BME280;24468;52.128;9.278;2023-10-08T00:06:33;101060.97;;;18.55;100.00
38718;BME280;24468;52.128;9.278;2023-10-08T00:08:58;101066.31;;;18.44;100.00
38718;BME280;24468;52.128;9.278;2023-10-08T00:11:35;101078.97;;;18.32;100.00
38718;BME280;24468;52.128;9.278;2023-10-08T00:14:02;101090.31;;;17.85;100.00
38718;BME280;24468;52.128;9.278;2023-10-08T00:16:30;101115.97;;;17.68;100.00
38718;BME280;24468;52.128;9.278;2023-10-08T00:18:59;101147.59;;;16.22;100.00
38718;BME280;24468;52.128;9.278;2023-10-08T00:21:33;101162.00;;;14.58;100.00
38718;BME280;24468;52.128;9.278;2023-10-08T00:24:00;101159.16;;;14.06;100.00
38718;BME280;24468;52.128;9.278;2023-10-08T00:26:31;101183.41;;;14.09;100.00
38718;BME280;24468;52.128;9.278;2023-10-08T00:28:59;101185.56;;;13.84;100.00
38718;BME280;24468;52.128;9.278;2023-10-08T00:31:26;101195.44;;;13.85;100.00
38718;BME280;24468;52.128;9.278;2023-10-08T00:34:04;101201.00;;;13.63;100.00
38718;BME280;24468;52.128;9.278;2023-10-08T00:36:45;101209.44;;;13.75;100.00
38718;BME280;24468;52.128;9.278;2023-10-08T00:39:14;101209.44;;;13.56;100.00
38718;BME280;24468;52.128;9.278;2023-10-08T00:41:45;101229.03;;;13.63;100.00
38718;BME280;24468;52.128;9.278;2023-10-08T00:44:13;101230.47;;;13.70;100.00
38718;BME280;24468;52.128;9.278;2023-10-08T00:46:49;101231.88;;;13.98;100.00
38718;BME280;24468;52.128;9.278;2023-10-08T00:49:23;101235.41;;;14.19;100.00
38718;BME280;24468;52.128;9.278;2023-10-08T00:52:08;101242.06;;;14.50;100.00
38718;BME280;24468;52.128;9.278;2023-10-08T00:54:35;101259.09;;;13.96;100.00
38718;BME280;24468;52.128;9.278;2023-10-08T00:57:16;101258.00;;;14.19;100.00
38718;BME280;24468;52.128;9.278;2023-10-08T00:59:47;101271.00;;;14.32;100.00
38718;BME280;24468;52.128;9.278;2023-10-08T01:02:20;101272.03;;;14.10;100.00
38718;BME280;24468;52.128;9.278;2023-10-08T01:04:50;101284.78;;;14.08;100.00
38718;BME280;24468;52.128;9.278;2023-10-08T01:07:16;101298.41;;;14.26;100.00
38718;BME280;24468;52.128;9.278;2023-10-08T01:09:44;101279.78;;;14.37;100.00
38718;BME280;24468;52.128;9.278;2023-10-08T01:12:21;101318.00;;;13.74;100.00
38718;BME280;24468;52.128;9.278;2023-10-08T01:14:51;101325.78;;;13.41;100.00
38718;BME280;24468;52.128;9.278;2023-10-08T01:17:24;101323.84;;;13.65;100.00
38718;BME280;24468;52.128;9.278;2023-10-08T01:19:51;101345.34;;;13.05;100.00
38718;BME280;24468;52.128;9.278;2023-10-08T01:22:22;101336.53;;;13.00;100.00
38718;BME280;24468;52.128;9.278;2023-10-08T01:24:48;101325.53;;;13.04;100.00
38718;BME280;24468;52.128;9.278;2023-10-08T01:27:15;101343.16;;;13.15;100.00
38718;BME280;24468;52.128;9.278;2023-10-08T01:29:52;101350.59;;;12.87;100.00
38718;BME280;24468;52.128;9.278;2023-10-08T01:32:19;101347.84;;;12.67;100.00
38718;BME280;24468;52.128;9.278;2023-10-08T01:34:46;101305.69;;;12.60;100.00
38718;BME280;24468;52.128;9.278;2023-10-08T01:37:16;101319.41;;;12.77;100.00
38718;BME280;24468;52.128;9.278;2023-10-08T01:39:47;101343.03;;;12.96;100.00
38718;BME280;24468;52.128;9.278;2023-10-08T01:42:16;101347.13;;;12.62;100.00
38718;BME280;24468;52.128;9.278;2023-10-08T01:44:49;101336.91;;;12.46;100.00
38718;BME280;24468;52.128;9.278;2023-10-08T01:47:16;101322.38;;;12.71;100.00
38718;BME280;24468;52.128;9.278;2023-10-08T01:49:43;101354.31;;;12.63;100.00
38718;BME280;24468;52.128;9.278;2023-10-08T01:52:10;101370.13;;;12.50;100.00
38718;BME280;24468;52.128;9.278;2023-10-08T01:54:55;101384.50;;;12.52;100.00
38718;BME280;24468;52.128;9.278;2023-10-08T01:57:21;101401.31;;;12.60;100.00
38718;BME280;24468;52.128;9.278;2023-10-08T01:59:46;101412.72;;;12.68;100.00
38718;BME280;24468;52.128;9.278;2023-10-08T02:02:12;101430.34;;;12.57;100.00
38718;BME280;24468;52.128;9.278;2023-10-08T02:04:41;101416.31;;;12.22;100.00
38718;BME280;24468;52.128;9.278;2023-10-08T02:07:07;101419.50;;;11.83;100.00
38718;BME280;24468;52.128;9.278;2023-10-08T02:09:40;101414.13;;;11.82;100.00
38718;BME280;24468;52.128;9.278;2023-10-08T02:12:06;101412.06;;;11.90;100.00
38718;BME280;24468;52.128;9.278;2023-10-08T02:14:32;101387.72;;;11.65;100.00
38718;BME280;24468;52.128;9.278;2023-10-08T02:17:01;101388.94;;;11.81;100.00
38718;BME280;24468;52.128;9.278;2023-10-08T02:19:32;101399.00;;;12.02;100.00
38718;BME280;24468;52.128;9.278;2023-10-08T02:21:58;101400.50;;;11.85;100.00
38718;BME280;24468;52.128;9.278;2023-10-08T02:24:24;101386.63;;;11.95;100.00
38718;BME280;24468;52.128;9.278;2023-10-08T02:26:54;101362.91;;;12.04;100.00
38718;BME280;24468;52.128;9.278;2023-10-08T02:29:23;101360.63;;;12.16;100.00
38718;BME280;24468;52.128;9.278;2023-10-08T02:31:50;101350.41;;;12.48;100.00
38718;BME280;24468;52.128;9.278;2023-10-08T02:34:15;101370.19;;;12.25;100.00
38718;BME280;24468;52.128;9.278;2023-10-08T02:36:41;101389.41;;;12.42;100.00
38718;BME280;24468;52.128;9.278;2023-10-08T02:39:08;101402.72;;;12.47;100.00
38718;BME280;24468;52.128;9.278;2023-10-08T02:41:49;101412.88;;;12.87;100.00
38718;BME280;24468;52.128;9.278;2023-10-08T02:44:16;101410.31;;;13.06;100.00
38718;BME280;24468;52.128;9.278;2023-10-08T02:46:45;101410.81;;;13.16;100.00
38718;BME280;24468;52.128;9.278;2023-10-08T02:49:17;101412.88;;;13.33;100.00
38718;BME280;24468;52.128;9.278;2023-10-08T02:51:51;101396.13;;;13.44;100.00
38718;BME280;24468;52.128;9.278;2023-10-08T02:54:18;101395.13;;;13.46;100.00
38718;BME280;24468;52.128;9.278;2023-10-08T02:56:46;101376.97;;;13.48;100.00
38718;BME280;24468;52.128;9.278;2023-10-08T02:59:13;101372.41;;;13.28;100.00
38718;BME280;24468;52.128;9.278;2023-10-08T03:01:39;101376.09;;;13.48;100.00
38718;BME280;24468;52.128;9.278;2023-10-08T03:04:09;101370.59;;;13.70;100.00
38718;BME280;24468;52.128;9.278;2023-10-08T03:06:50;101357.25;;;13.65;100.00
38718;BME280;24468;52.128;9.278;2023-10-08T03:09:21;101368.78;;;13.70;100.00
38718;BME280;24468;52.128;9.278;2023-10-08T03:11:51;101358.19;;;13.85;100.00
38718;BME280;24468;52.128;9.278;2023-10-08T03:14:19;101350.88;;;13.87;100.00
38718;BME280;24468;52.128;9.278;2023-10-08T03:16:52;101357.41;;;14.98;100.00
38718;BME280;24468;52.128;9.278;2023-10-08T03:19:21;101373.06;;;14.74;100.00
38718;BME280;24468;52.128;9.278;2023-10-08T03:21:49;101392.59;;;14.63;100.00
38718;BME280;24468;52.128;9.278;2023-10-08T03:24:22;101405.41;;;14.20;100.00
38718;BME280;24468;52.128;9.278;2023-10-08T03:27:04;101411.84;;;14.38;100.00
38718;BME280;24468;52.128;9.278;2023-10-08T03:29:51;101416.69;;;14.50;100.00
38718;BME280;24468;52.128;9.278;2023-10-08T03:32:19;101423.84;;;14.53;100.00
38718;BME280;24468;52.128;9.278;2023-10-08T03:34:51;101423.91;;;14.51;100.00
38718;BME280;24468;52.128;9.278;2023-10-08T03:37:22;101432.66;;;14.18;100.00
38718;BME280;24468;52.128;9.278;2023-10-08T03:39:55;101447.03;;;14.00;100.00
38718;BME280;24468;52.128;9.278;2023-10-08T03:42:33;101451.00;;;13.71;100.00
38718;BME280;24468;52.128;9.278;2023-10-08T03:45:06;101446.97;;;13.39;100.00
38718;BME280;24468;52.128;9.278;2023-10-08T03:47:37;101453.84;;;13.24;100.00
38718;BME280;24468;52.128;9.278;2023-10-08T03:50:07;101450.00;;;13.31;100.00
38718;BME280;24468;52.128;9.278;2023-10-08T03:52:36;101452.19;;;13.43;100.00
38718;BME280;24468;52.128;9.278;2023-10-08T03:55:07;101444.81;;;13.47;100.00
38718;BME280;24468;52.128;9.278;2023-10-08T03:57:44;101452.09;;;13.67;100.00
38718;BME280;24468;52.128;9.278;2023-10-08T04:00:14;101455.06;;;13.61;100.00
38718;BME280;24468;52.128;9.278;2023-10-08T04:02:57;101443.41;;;13.79;100.00
38718;BME280;24468;52.128;9.278;2023-10-08T04:05:35;101443.63;;;13.74;100.00
38718;BME280;24468;52.128;9.278;2023-10-08T04:08:25;101448.25;;;13.93;100.00
38718;BME280;24468;52.128;9.278;2023-10-08T04:11:09;101451.03;;;14.12;100.00
38718;BME280;24468;52.128;9.278;2023-10-08T04:13:47;101457.59;;;14.06;100.00
38718;BME280;24468;52.128;9.278;2023-10-08T04:16:14;101453.69;;;14.13;100.00
38718;BME280;24468;52.128;9.278;2023-10-08T04:18:45;101454.22;;;14.21;100.00
38718;BME280;24468;52.128;9.278;2023-10-08T04:21:11;101458.97;;;14.16;100.00
38718;BME280;24468;52.128;9.278;2023-10-08T04:23:40;101456.94;;;14.01;100.00
38718;BME280;24468;52.128;9.278;2023-10-08T04:26:05;101456.88;;;14.02;100.00
38718;BME280;24468;52.128;9.278;2023-10-08T04:28:32;101451.03;;;13.91;100.00
38718;BME280;24468;52.128;9.278;2023-10-08T04:31:00;101463.38;;;13.98;100.00
38718;BME280;24468;52.128;9.278;2023-10-08T04:33:43;101449.00;;;13.96;100.00
38718;BME280;24468;52.128;9.278;2023-10-08T04:36:10;101463.53;;;14.16;100.00
38718;BME280;24468;52.128;9.278;2023-10-08T04:38:43;101456.94;;;14.21;100.00
38718;BME280;24468;52.128;9.278;2023-10-08T04:41:11;101460.78;;;13.95;100.00
38718;BME280;24468;52.128;9.278;2023-10-08T04:43:37;101462.50;;;14.18;100.00
38718;BME280;24468;52.128;9.278;2023-10-08T04:46:08;101469.69;;;13.99;100.00
38718;BME280;24468;52.128;9.278;2023-10-08T04:48:48;101471.09;;;14.28;100.00
38718;BME280;24468;52.128;9.278;2023-10-08T04:51:17;101470.44;;;14.02;100.00
38718;BME280;24468;52.128;9.278;2023-10-08T04:53:43;101465.28;;;13.96;100.00
38718;BME280;24468;52.128;9.278;2023-10-08T04:56:12;101462.16;;;13.85;100.00
38718;BME280;24468;52.128;9.278;2023-10-08T04:58:48;101461.09;;;14.10;100.00
38718;BME280;24468;52.128;9.278;2023-10-08T05:01:15;101473.28;;;14.20;100.00
38718;BME280;24468;52.128;9.278;2023-10-08T05:04:04;101473.91;;;14.27;100.00
38718;BME280;24468;52.128;9.278;2023-10-08T05:06:31;101466.28;;;14.14;100.00
38718;BME280;24468;52.128;9.278;2023-10-08T05:09:01;101470.38;;;14.24;100.00
38718;BME280;24468;52.128;9.278;2023-10-08T05:11:52;101471.53;;;14.19;100.00
38718;BME280;24468;52.128;9.278;2023-10-08T05:14:23;101474.81;;;14.26;100.00
38718;BME280;24468;52.128;9.278;2023-10-08T05:17:02;101482.19;;;14.23;100.00
38718;BME280;24468;52.128;9.278;2023-10-08T05:19:37;101492.63;;;14.33;100.00
38718;BME280;24468;52.128;9.278;2023-10-08T05:22:08;101497.91;;;14.36;100.00
38718;BME280;24468;52.128;9.278;2023-10-08T05:24:49;101526.88;;;14.35;100.00
38718;BME280;24468;52.128;9.278;2023-10-08T05:27:42;101531.13;;;14.20;100.00
38718;BME280;24468;52.128;9.278;2023-10-08T05:30:23;101526.69;;;13.99;100.00
38718;BME280;24468;52.128;9.278;2023-10-08T05:33:18;101532.78;;;14.04;100.00
38718;BME280;24468;52.128;9.278;2023-10-08T05:35:52;101550.31;;;13.95;100.00
38718;BME280;24468;52.128;9.278;2023-10-08T05:38:28;101544.75;;;13.98;100.00
38718;BME280;24468;52.128;9.278;2023-10-08T05:40:59;101552.47;;;13.65;100.00
38718;BME280;24468;52.128;9.278;2023-10-08T05:43:34;101559.53;;;13.91;100.00
38718;BME280;24468;52.128;9.278;2023-10-08T05:46:14;101571.97;;;13.97;100.00
38718;BME280;24468;52.128;9.278;2023-10-08T05:48:54;101566.03;;;13.87;100.00
38718;BME280;24468;52.128;9.278;2023-10-08T05:51:39;101569.84;;;13.83;100.00
38718;BME280;24468;52.128;9.278;2023-10-08T05:57:07;101592.28;;;13.65;100.00
38718;BME280;24468;52.128;9.278;2023-10-08T06:02:29;101588.25;;;13.53;100.00
38718;BME280;24468;52.128;9.278;2023-10-08T06:05:07;101598.59;;;13.87;100.00
38718;BME280;24468;52.128;9.278;2023-10-08T06:07:47;101580.28;;;13.92;100.00
38718;BME280;24468;52.128;9.278;2023-10-08T06:10:32;101570.66;;;13.85;100.00
38718;BME280;24468;52.128;9.278;2023-10-08T06:13:06;101571.53;;;13.86;100.00
38718;BME280;24468;52.128;9.278;2023-10-08T06:15:47;101574.97;;;14.11;100.00
38718;BME280;24468;52.128;9.278;2023-10-08T06:18:30;101580.84;;;14.43;100.00
38718;BME280;24468;52.128;9.278;2023-10-08T06:21:02;101580.50;;;14.51;100.00
38718;BME280;24468;52.128;9.278;2023-10-08T06:23:33;101576.16;;;14.67;100.00
38718;BME280;24468;52.128;9.278;2023-10-08T06:26:01;101584.09;;;14.31;100.00
38718;BME280;24468;52.128;9.278;2023-10-08T06:28:40;101599.47;;;14.52;100.00
38718;BME280;24468;52.128;9.278;2023-10-08T06:31:07;101595.03;;;14.50;100.00
38718;BME280;24468;52.128;9.278;2023-10-08T06:33:44;101586.19;;;14.44;100.00
38718;BME280;24468;52.128;9.278;2023-10-08T06:36:10;101584.31;;;14.67;100.00
38718;BME280;24468;52.128;9.278;2023-10-08T06:38:37;101572.09;;;14.98;100.00
38718;BME280;24468;52.128;9.278;2023-10-08T06:41:05;101590.38;;;15.13;100.00
38718;BME280;24468;52.128;9.278;2023-10-08T06:43:36;101601.69;;;15.04;100.00
38718;BME280;24468;52.128;9.278;2023-10-08T06:46:03;101598.97;;;14.83;100.00
38718;BME280;24468;52.128;9.278;2023-10-08T06:48:32;101615.88;;;14.49;100.00
38718;BME280;24468;52.128;9.278;2023-10-08T06:51:00;101618.22;;;14.36;100.00
38718;BME280;24468;52.128;9.278;2023-10-08T06:53:36;101620.88;;;14.38;100.00
38718;BME280;24468;52.128;9.278;2023-10-08T06:56:04;101619.72;;;14.65;100.00
38718;BME280;24468;52.128;9.278;2023-10-08T06:58:32;101623.31;;;14.66;100.00
38718;BME280;24468;52.128;9.278;2023-10-08T07:00:58;101629.22;;;14.55;100.00
38718;BME280;24468;52.128;9.278;2023-10-08T07:03:24;101628.59;;;14.69;100.00
38718;BME280;24468;52.128;9.278;2023-10-08T07:05:51;101648.50;;;14.90;100.00
38718;BME280;24468;52.128;9.278;2023-10-08T07:08:27;101660.84;;;14.97;100.00
38718;BME280;24468;52.128;9.278;2023-10-08T07:10:54;101676.56;;;14.70;100.00
38718;BME280;24468;52.128;9.278;2023-10-08T07:13:22;101672.53;;;14.58;100.00
38718;BME280;24468;52.128;9.278;2023-10-08T07:15:54;101665.56;;;14.73;100.00
38718;BME280;24468;52.128;9.278;2023-10-08T07:18:20;101661.53;;;14.61;100.00
38718;BME280;24468;52.128;9.278;2023-10-08T07:20:54;101673.09;;;14.87;100.00
38718;BME280;24468;52.128;9.278;2023-10-08T07:23:22;101663.59;;;14.77;100.00
38718;BME280;24468;52.128;9.278;2023-10-08T07:26:02;101675.88;;;14.65;100.00
38718;BME280;24468;52.128;9.278;2023-10-08T07:28:40;101673.16;;;14.65;100.00
38718;BME280;24468;52.128;9.278;2023-10-08T07:31:17;101678.22;;;14.30;100.00
38718;BME280;24468;52.128;9.278;2023-10-08T07:33:43;101687.13;;;14.12;100.00
38718;BME280;24468;52.128;9.278;2023-10-08T07:36:12;101693.41;;;14.12;100.00
38718;BME280;24468;52.128;9.278;2023-10-08T07:38:42;101694.06;;;14.19;100.00
38718;BME280;24468;52.128;9.278;2023-10-08T07:41:09;101690.59;;;14.15;100.00
38718;BME280;24468;52.128;9.278;2023-10-08T07:43:39;101688.50;;;14.00;100.00
38718;BME280;24468;52.128;9.278;2023-10-08T07:46:04;101696.22;;;14.33;100.00
38718;BME280;24468;52.128;9.278;2023-10-08T07:48:31;101689.66;;;14.16;100.00
38718;BME280;24468;52.128;9.278;2023-10-08T07:50:57;101694.06;;;14.19;100.00
38718;BME280;24468;52.128;9.278;2023-10-08T07:53:26;101690.78;;;14.55;100.00
38718;BME280;24468;52.128;9.278;2023-10-08T07:56:05;101696.03;;;14.59;100.00
38718;BME280;24468;52.128;9.278;2023-10-08T07:58:37;101682.56;;;14.78;100.00
38718;BME280;24468;52.128;9.278;2023-10-08T08:01:05;101687.34;;;15.12;100.00
38718;BME280;24468;52.128;9.278;2023-10-08T08:03:36;101693.13;;;15.05;100.00
38718;BME280;24468;52.128;9.278;2023-10-08T08:06:06;101708.25;;;14.48;100.00
38718;BME280;24468;52.128;9.278;2023-10-08T08:08:33;101712.97;;;14.42;100.00
38718;BME280;24468;52.128;9.278;2023-10-08T08:11:00;101704.91;;;14.41;100.00
38718;BME280;24468;52.128;9.278;2023-10-08T08:13:34;101699.09;;;14.50;100.00
38718;BME280;24468;52.128;9.278;2023-10-08T08:16:00;101699.53;;;15.04;100.00
38718;BME280;24468;52.128;9.278;2023-10-08T08:18:37;101692.50;;;15.19;100.00
38718;BME280;24468;52.128;9.278;2023-10-08T08:21:02;101696.72;;;15.26;100.00
38718;BME280;24468;52.128;9.278;2023-10-08T08:23:29;101696.63;;;15.27;100.00
38718;BME280;24468;52.128;9.278;2023-10-08T08:25:56;101691.03;;;15.71;100.00
38718;BME280;24468;52.128;9.278;2023-10-08T08:28:32;101693.75;;;16.63;100.00
38718;BME280;24468;52.128;9.278;2023-10-08T08:31:05;101720.41;;;16.93;100.00
38718;BME280;24468;52.128;9.278;2023-10-08T08:33:40;101731.59;;;16.86;100.00
38718;BME280;24468;52.128;9.278;2023-10-08T08:36:20;101738.78;;;16.15;100.00
38718;BME280;24468;52.128;9.278;2023-10-08T08:38:46;101732.63;;;16.11;100.00
38718;BME280;24468;52.128;9.278;2023-10-08T08:41:13;101726.69;;;16.39;100.00
38718;BME280;24468;52.128;9.278;2023-10-08T08:44:01;101716.63;;;16.59;100.00
38718;BME280;24468;52.128;9.278;2023-10-08T08:46:35;101712.97;;;16.60;100.00
38718;BME280;24468;52.128;9.278;2023-10-08T08:49:05;101708.03;;;17.20;100.00
38718;BME280;24468;52.128;9.278;2023-10-08T08:51:34;101709.16;;;17.16;100.00
38718;BME280;24468;52.128;9.278;2023-10-08T08:54:01;101706.59;;;17.30;100.00
38718;BME280;24468;52.128;9.278;2023-10-08T08:56:39;101716.31;;;16.84;100.00
38718;BME280;24468;52.128;9.278;2023-10-08T08:59:06;101728.88;;;16.50;100.00
38718;BME280;24468;52.128;9.278;2023-10-08T09:01:32;101751.69;;;15.53;100.00
38718;BME280;24468;52.128;9.278;2023-10-08T09:04:05;101749.19;;;15.28;100.00
38718;BME280;24468;52.128;9.278;2023-10-08T09:06:35;101754.53;;;15.50;100.00
38718;BME280;24468;52.128;9.278;2023-10-08T09:09:04;101765.72;;;15.83;100.00
38718;BME280;24468;52.128;9.278;2023-10-08T09:11:52;101759.66;;;15.37;100.00
38718;BME280;24468;52.128;9.278;2023-10-08T09:14:23;101761.88;;;15.68;100.00
38718;BME280;24468;52.128;9.278;2023-10-08T09:16:50;101764.47;;;15.90;100.00
38718;BME280;24468;52.128;9.278;2023-10-08T09:19:16;101763.59;;;16.83;100.00
38718;BME280;24468;52.128;9.278;2023-10-08T09:22:08;101765.09;;;17.41;100.00
38718;BME280;24468;52.128;9.278;2023-10-08T09:24:36;101767.16;;;17.20;100.00
38718;BME280;24468;52.128;9.278;2023-10-08T09:27:06;101767.13;;;17.02;100.00
38718;BME280;24468;52.128;9.278;2023-10-08T09:29:34;101771.19;;;16.21;100.00
38718;BME280;24468;52.128;9.278;2023-10-08T09:32:07;101769.94;;;16.64;100.00
38718;BME280;24468;52.128;9.278;2023-10-08T09:34:33;101766.75;;;17.10;100.00
38718;BME280;24468;52.128;9.278;2023-10-08T09:37:01;101773.41;;;17.04;100.00
38718;BME280;24468;52.128;9.278;2023-10-08T09:39:28;101760.97;;;17.16;100.00
38718;BME280;24468;52.128;9.278;2023-10-08T09:42:01;101741.50;;;17.57;100.00
38718;BME280;24468;52.128;9.278;2023-10-08T09:44:31;101728.34;;;17.48;100.00
38718;BME280;24468;52.128;9.278;2023-10-08T09:47:05;101723.81;;;17.64;100.00
38718;BME280;24468;52.128;9.278;2023-10-08T09:49:32;101743.47;;;17.88;100.00
38718;BME280;24468;52.128;9.278;2023-10-08T09:52:03;101732.69;;;17.85;100.00
38718;BME280;24468;52.128;9.278;2023-10-08T09:54:42;101730.41;;;17.93;100.00
38718;BME280;24468;52.128;9.278;2023-10-08T09:57:10;101713.31;;;18.37;100.00
38718;BME280;24468;52.128;9.278;2023-10-08T09:59:35;101705.72;;;18.58;100.00
38718;BME280;24468;52.128;9.278;2023-10-08T10:02:04;101709.81;;;18.19;100.00
38718;BME280;24468;52.128;9.278;2023-10-08T10:04:31;101694.78;;;18.58;100.00
38718;BME280;24468;52.128;9.278;2023-10-08T10:07:09;101700.28;;;18.73;100.00
38718;BME280;24468;52.128;9.278;2023-10-08T10:09:38;101736.31;;;18.65;100.00
38718;BME280;24468;52.128;9.278;2023-10-08T10:12:05;101751.75;;;18.18;100.00
38718;BME280;24468;52.128;9.278;2023-10-08T10:14:47;101749.69;;;18.54;100.00
38718;BME280;24468;52.128;9.278;2023-10-08T10:17:15;101754.31;;;18.99;100.00
38718;BME280;24468;52.128;9.278;2023-10-08T10:19:44;101717.84;;;18.69;100.00
38718;BME280;24468;52.128;9.278;2023-10-08T10:22:14;101736.25;;;18.35;100.00
38718;BME280;24468;52.128;9.278;2023-10-08T10:24:53;101793.91;;;17.64;100.00
38718;BME280;24468;52.128;9.278;2023-10-08T10:27:18;101790.69;;;18.06;100.00
38718;BME280;24468;52.128;9.278;2023-10-08T10:29:44;101818.88;;;17.56;100.00
38718;BME280;24468;52.128;9.278;2023-10-08T10:32:15;101831.81;;;16.81;100.00
38718;BME280;24468;52.128;9.278;2023-10-08T10:34:45;101779.09;;;17.17;100.00
38718;BME280;24468;52.128;9.278;2023-10-08T10:37:13;101768.13;;;17.69;100.00
38718;BME280;24468;52.128;9.278;2023-10-08T10:39:56;101753.91;;;17.63;100.00
38718;BME280;24468;52.128;9.278;2023-10-08T10:42:24;101786.75;;;17.78;100.00
38718;BME280;24468;52.128;9.278;2023-10-08T10:44:52;101796.13;;;17.73;100.00
38718;BME280;24468;52.128;9.278;2023-10-08T10:47:19;101797.31;;;17.85;100.00
38718;BME280;24468;52.128;9.278;2023-10-08T10:49:50;101774.59;;;17.33;100.00
38718;BME280;24468;52.128;9.278;2023-10-08T10:52:28;101754.19;;;17.58;100.00
38718;BME280;24468;52.128;9.278;2023-10-08T10:55:04;101756.72;;;17.28;100.00
38718;BME280;24468;52.128;9.278;2023-10-08T10:57:40;101783.19;;;17.26;100.00
38718;BME280;24468;52.128;9.278;2023-10-08T11:00:08;101805.06;;;17.59;100.00
38718;BME280;24468;52.128;9.278;2023-10-08T11:02:52;101807.25;;;17.35;100.00
38718;BME280;24468;52.128;9.278;2023-10-08T11:05:22;101787.97;;;17.38;100.00
38718;BME280;24468;52.128;9.278;2023-10-08T11:07:58;101760.88;;;18.02;100.00
38718;BME280;24468;52.128;9.278;2023-10-08T11:10:31;101748.06;;;18.51;100.00
38718;BME280;24468;52.128;9.278;2023-10-08T11:12:57;101745.81;;;18.74;100.00
38718;BME280;24468;52.128;9.278;2023-10-08T11:15:29;101740.91;;;18.49;99.67
38718;BME280;24468;52.128;9.278;2023-10-08T11:18:13;101735.34;;;18.34;100.00
38718;BME280;24468;52.128;9.278;2023-10-08T11:20:43;101748.38;;;18.61;100.00
38718;BME280;24468;52.128;9.278;2023-10-08T11:23:40;101740.47;;;19.02;100.00
38718;BME280;24468;52.128;9.278;2023-10-08T11:26:07;101739.31;;;19.06;96.04
38718;BME280;24468;52.128;9.278;2023-10-08T11:28:38;101740.28;;;18.59;97.35
38718;BME280;24468;52.128;9.278;2023-10-08T11:31:10;101741.00;;;18.47;97.40
38718;BME280;24468;52.128;9.278;2023-10-08T11:33:39;101750.16;;;18.14;100.00
38718;BME280;24468;52.128;9.278;2023-10-08T11:36:07;101750.88;;;18.02;100.00
38718;BME280;24468;52.128;9.278;2023-10-08T11:38:44;101750.97;;;18.32;100.00
38718;BME280;24468;52.128;9.278;2023-10-08T11:41:17;101767.63;;;18.43;96.31
38718;BME280;24468;52.128;9.278;2023-10-08T11:43:50;101761.09;;;18.46;100.00
38718;BME280;24468;52.128;9.278;2023-10-08T11:46:24;101756.97;;;19.01;100.00
38718;BME280;24468;52.128;9.278;2023-10-08T11:48:51;101762.84;;;18.15;98.27
38718;BME280;24468;52.128;9.278;2023-10-08T11:51:17;101758.91;;;18.99;93.95
38718;BME280;24468;52.128;9.278;2023-10-08T11:53:44;101758.34;;;19.08;95.87
38718;BME280;24468;52.128;9.278;2023-10-08T11:56:12;101760.63;;;19.16;90.71
38718;BME280;24468;52.128;9.278;2023-10-08T11:58:41;101756.50;;;19.08;90.60
38718;BME280;24468;52.128;9.278;2023-10-08T12:01:13;101759.94;;;18.50;94.41
38718;BME280;24468;52.128;9.278;2023-10-08T12:03:44;101755.59;;;18.78;96.20
38718;BME280;24468;52.128;9.278;2023-10-08T12:06:11;101756.91;;;19.17;91.92
38718;BME280;24468;52.128;9.278;2023-10-08T12:08:42;101738.34;;;19.22;93.81
38718;BME280;24468;52.128;9.278;2023-10-08T12:11:10;101730.00;;;19.39;91.35
38718;BME280;24468;52.128;9.278;2023-10-08T12:13:38;101721.28;;;18.88;92.31
38718;BME280;24468;52.128;9.278;2023-10-08T12:16:04;101716.66;;;19.33;94.05
38718;BME280;24468;52.128;9.278;2023-10-08T12:18:33;101714.47;;;19.97;86.28
38718;BME280;24468;52.128;9.278;2023-10-08T12:21:05;101711.22;;;19.62;85.05
38718;BME280;24468;52.128;9.278;2023-10-08T12:23:37;101713.38;;;19.57;82.02
38718;BME280;24468;52.128;9.278;2023-10-08T12:26:03;101706.28;;;18.95;86.04
38718;BME280;24468;52.128;9.278;2023-10-08T12:28:29;101698.59;;;18.86;83.85
38718;BME280;24468;52.128;9.278;2023-10-08T12:30:55;101687.50;;;18.43;86.09
38718;BME280;24468;52.128;9.278;2023-10-08T12:33:23;101677.75;;;19.14;89.31
38718;BME280;24468;52.128;9.278;2023-10-08T12:35:53;101668.00;;;19.09;87.75
38718;BME280;24468;52.128;9.278;2023-10-08T12:38:21;101664.47;;;19.07;87.41
38718;BME280;24468;52.128;9.278;2023-10-08T12:40:51;101660.94;;;19.05;87.19
38718;BME280;24468;52.128;9.278;2023-10-08T12:43:24;101669.34;;;18.72;87.55
38718;BME280;24468;52.128;9.278;2023-10-08T12:45:54;101660.84;;;18.62;93.27
38718;BME280;24468;52.128;9.278;2023-10-08T12:48:28;101653.44;;;18.18;91.12
38718;BME280;24468;52.128;9.278;2023-10-08T12:50:54;101646.69;;;18.40;95.31
38718;BME280;24468;52.128;9.278;2023-10-08T12:53:28;101644.31;;;18.64;94.76
38718;BME280;24468;52.128;9.278;2023-10-08T12:56:07;101648.53;;;18.70;91.75
38718;BME280;24468;52.128;9.278;2023-10-08T12:58:41;101664.00;;;19.01;88.66
38718;BME280;24468;52.128;9.278;2023-10-08T13:01:14;101672.09;;;19.02;87.72
38718;BME280;24468;52.128;9.278;2023-10-08T13:03:43;101668.00;;;18.49;92.05
38718;BME280;24468;52.128;9.278;2023-10-08T13:06:16;101672.06;;;18.88;93.43
38718;BME280;24468;52.128;9.278;2023-10-08T13:08:56;101669.88;;;19.09;90.17